Time;durP1;ratioP1;P1;durP2;ratioP2;P2;SDS_P1;SDS_P2;PMS_P1;PMS_P2;Temp;Humidity;BMP_temperature;BMP_pressure;BME280_temperature;BME280_humidity;BME280_pressure;Samples;Min_cycle;Max_cycle;Signal;HPM_P1;HPM_P2
2022/03/23 00:02:03;;;;;;;22.00;14.57;;;;;;;6.37;44.93;102444.78;5123696;27;20046;-84
2022/03/23 00:04:30;;;;;;;23.27;12.52;;;;;;;6.35;45.09;102445.56;5108221;27;20067;-84
2022/03/23 00:06:57;;;;;;;22.23;13.68;;;;;;;6.33;45.07;102444.63;5078498;27;20058;-84
2022/03/23 00:09:24;;;;;;;20.85;13.45;;;;;;;6.28;45.19;102441.84;5011936;28;20509;-84
2022/03/23 00:11:50;;;;;;;16.45;13.30;;;;;;;6.24;44.74;102445.16;5005188;28;20062;-83
2022/03/23 00:14:17;;;;;;;19.40;12.95;;;;;;;6.25;45.03;102441.75;5010585;28;20114;-83
2022/03/23 00:16:43;;;;;;;18.25;13.32;;;;;;;6.28;44.66;102444.44;5007827;28;20053;-84
2022/03/23 00:19:10;;;;;;;26.52;13.45;;;;;;;6.28;44.42;102441.84;5003430;28;20500;-84
2022/03/23 00:21:37;;;;;;;20.45;12.68;;;;;;;6.28;44.47;102444.44;5023444;28;20040;-84
2022/03/23 00:24:05;;;;;;;19.73;14.13;;;;;;;6.24;44.57;102438.25;5039399;27;20057;-84
2022/03/23 00:26:34;;;;;;;22.60;14.35;;;;;;;6.22;44.49;102437.31;5017418;28;20053;-84
2022/03/23 00:29:01;;;;;;;21.85;13.98;;;;;;;6.22;44.51;102441.59;5030820;28;20664;-84
2022/03/23 00:31:27;;;;;;;20.48;12.38;;;;;;;6.18;44.45;102438.03;4990420;28;20051;-84
2022/03/23 00:33:55;;;;;;;19.05;12.50;;;;;;;6.12;44.77;102438.66;5025568;28;20637;-84
2022/03/23 00:36:23;;;;;;;21.50;13.15;;;;;;;6.08;45.36;102443.72;5009526;28;20471;-83
2022/03/23 00:38:50;;;;;;;19.20;12.60;;;;;;;6.04;45.25;102441.81;5021442;28;20087;-83
2022/03/23 00:41:17;;;;;;;19.45;13.77;;;;;;;6.01;45.08;102437.38;5011431;28;20046;-84
2022/03/23 00:43:44;;;;;;;21.67;12.70;;;;;;;5.98;44.81;102432.06;5030235;27;20048;-83
2022/03/23 00:46:11;;;;;;;22.35;13.27;;;;;;;5.92;45.35;102432.69;5014702;28;20150;-83
2022/03/23 00:48:37;;;;;;;18.90;12.18;;;;;;;5.88;45.38;102436.00;5028373;27;20058;-83
2022/03/23 00:51:04;;;;;;;19.55;13.82;;;;;;;5.85;45.38;102432.38;5019048;28;20065;-84
2022/03/23 00:53:31;;;;;;;20.73;13.02;;;;;;;5.81;45.69;102431.38;5018112;28;20053;-83
2022/03/23 00:55:58;;;;;;;22.33;14.25;;;;;;;5.77;45.67;102440.75;5009362;28;20050;-84
2022/03/23 00:58:24;;;;;;;23.02;12.38;;;;;;;5.73;46.10;102441.44;5005366;28;20053;-84
2022/03/23 01:00:51;;;;;;;24.85;12.45;;;;;;;5.72;46.07;102433.59;4994071;28;20748;-84
2022/03/23 01:03:17;;;;;;;20.73;14.05;;;;;;;5.73;45.99;102432.78;5019134;28;20052;-84
2022/03/23 01:05:44;;;;;;;19.15;12.65;;;;;;;5.74;45.62;102438.03;5025842;28;20038;-84
2022/03/23 01:08:10;;;;;;;19.48;12.43;;;;;;;5.74;45.43;102430.25;5010543;28;20055;-84
2022/03/23 01:10:37;;;;;;;18.92;13.50;;;;;;;5.74;45.51;102434.56;5010220;28;20042;-84
2022/03/23 01:13:03;;;;;;;16.80;11.60;;;;;;;5.72;45.74;102436.19;5010959;28;20623;-83
2022/03/23 01:15:30;;;;;;;21.05;13.93;;;;;;;5.67;45.88;102433.44;5071241;28;20074;-84
2022/03/23 01:17:57;;;;;;;18.20;13.07;;;;;;;5.63;46.14;102431.50;5010032;28;20057;-83
2022/03/23 01:20:24;;;;;;;22.33;13.52;;;;;;;5.60;46.27;102424.47;5012445;28;20155;-83
2022/03/23 01:22:51;;;;;;;20.58;12.98;;;;;;;5.61;46.15;102430.59;5011736;28;20049;-83
2022/03/23 01:25:19;;;;;;;22.30;14.48;;;;;;;5.60;46.28;102429.69;4991130;28;20058;-84
2022/03/23 01:27:46;;;;;;;23.25;13.45;;;;;;;5.57;46.44;102426.09;5005642;28;20442;-84
2022/03/23 01:30:14;;;;;;;23.60;14.23;;;;;;;5.53;46.53;102435.47;5048387;27;20595;-84
2022/03/23 01:32:43;;;;;;;20.98;12.90;;;;;;;5.50;46.41;102434.44;4997490;28;20627;-84
2022/03/23 01:35:12;;;;;;;19.90;13.73;;;;;;;5.47;46.43;102425.72;5031628;27;20056;-83
2022/03/23 01:37:39;;;;;;;17.90;12.82;;;;;;;5.45;46.87;102429.09;5022913;28;20478;-84
2022/03/23 01:40:09;;;;;;;22.67;13.75;;;;;;;5.43;46.70;102434.19;5012739;28;20065;-84
2022/03/23 01:42:36;;;;;;;19.13;12.77;;;;;;;5.40;46.39;102425.41;5015479;28;20072;-83
2022/03/23 01:45:04;;;;;;;23.05;13.85;;;;;;;5.37;46.42;102425.25;5023759;28;20042;-84
2022/03/23 01:47:30;;;;;;;21.67;13.30;;;;;;;5.33;47.05;102423.38;5033706;27;20565;-83
2022/03/23 01:49:57;;;;;;;17.35;12.77;;;;;;;5.28;47.56;102424.06;5032289;28;20072;-83
2022/03/23 01:52:31;;;;;;;17.40;13.20;;;;;;;5.25;47.22;102426.56;5035196;27;20037;-84
2022/03/23 01:54:57;;;;;;;19.25;13.63;;;;;;;5.24;47.70;102423.88;5026863;28;20060;-83
2022/03/23 01:57:24;;;;;;;24.27;13.95;;;;;;;5.23;47.86;102425.59;5028889;28;20047;-84
2022/03/23 01:59:52;;;;;;;22.70;13.95;;;;;;;5.22;47.59;102425.53;5013644;28;20052;-83
2022/03/23 02:02:19;;;;;;;18.60;12.25;;;;;;;5.18;48.23;102421.03;5026190;28;20050;-83
2022/03/23 02:04:46;;;;;;;20.75;14.63;;;;;;;5.12;48.61;102414.78;5006147;28;20136;-83
2022/03/23 02:07:14;;;;;;;20.20;12.98;;;;;;;5.08;48.69;102420.63;5066677;28;20059;-83
2022/03/23 02:09:41;;;;;;;16.90;13.43;;;;;;;5.03;48.59;102416.06;5109371;28;20040;-83
2022/03/23 02:12:08;;;;;;;19.85;13.13;;;;;;;4.98;49.11;102418.50;5126200;27;20048;-84
2022/03/23 02:14:38;;;;;;;20.80;13.05;;;;;;;4.94;49.02;102420.06;5107326;28;20048;-83
2022/03/23 02:17:06;;;;;;;23.45;13.93;;;;;;;4.92;49.43;102415.63;5125180;27;20053;-84
2022/03/23 02:19:34;;;;;;;18.65;11.80;;;;;;;4.90;49.59;102412.97;5106852;28;20047;-84
2022/03/23 02:22:01;;;;;;;19.92;13.23;;;;;;;4.87;49.76;102412.81;5107757;27;20043;-84
2022/03/23 02:24:32;;;;;;;19.05;12.88;;;;;;;4.86;49.75;102412.75;5109501;28;20107;-83
2022/03/23 02:27:01;;;;;;;20.52;13.48;;;;;;;4.79;50.37;102407.31;5120020;27;20055;-83
2022/03/23 02:29:31;;;;;;;21.55;13.70;;;;;;;4.77;50.33;102410.66;5110958;27;20061;-83
2022/03/23 02:32:01;;;;;;;20.45;14.18;;;;;;;4.74;51.26;102418.31;5127005;27;20048;-83
2022/03/23 02:34:29;;;;;;;21.75;14.35;;;;;;;4.68;51.47;102413.75;5105118;27;20061;-83
2022/03/23 02:36:56;;;;;;;20.40;13.60;;;;;;;4.65;51.71;102408.41;5110435;27;20494;-84
2022/03/23 02:39:22;;;;;;;22.27;14.55;;;;;;;4.59;52.02;102414.22;5106514;27;20133;-84
2022/03/23 02:41:49;;;;;;;24.02;13.95;;;;;;;4.57;52.36;102417.56;5135412;27;20123;-83
2022/03/23 02:44:17;;;;;;;21.60;14.80;;;;;;;4.52;52.75;102408.69;5108538;28;20099;-83
2022/03/23 02:46:44;;;;;;;20.33;12.63;;;;;;;4.49;53.22;102417.22;5106900;28;20036;-84
2022/03/23 02:49:11;;;;;;;21.05;14.23;;;;;;;4.46;53.27;102407.63;5096124;28;20066;-82
2022/03/23 02:51:38;;;;;;;22.45;14.70;;;;;;;4.44;53.24;102416.13;5121675;27;20057;-83
2022/03/23 03:02:58;;;;;;;22.75;15.93;;;;;;;4.25;54.40;102410.13;5110125;27;20051;-83
2022/03/23 03:05:24;;;;;;;23.33;14.88;;;;;;;4.23;54.28;102406.56;5106344;27;20163;-83
2022/03/23 03:10:35;;;;;;;21.52;13.80;;;;;;;4.19;54.35;102415.03;5016280;28;20033;-83
2022/03/23 03:13:01;;;;;;;17.77;13.48;;;;;;;4.20;54.05;102405.53;4998750;28;20038;-83
2022/03/23 03:15:28;;;;;;;20.70;13.55;;;;;;;4.18;54.21;102408.06;5074240;28;20483;-83
2022/03/23 03:17:59;;;;;;;22.65;13.35;;;;;;;4.18;54.03;102402.00;5016044;28;20515;-83
2022/03/23 03:20:26;;;;;;;24.60;15.10;;;;;;;4.14;54.39;102412.22;5006024;28;20060;-83
2022/03/23 03:22:53;;;;;;;24.85;16.35;;;;;;;4.12;54.34;102408.69;4997275;28;20056;-83
2022/03/23 03:25:20;;;;;;;22.65;14.40;;;;;;;4.10;54.06;102410.31;5019542;28;20057;-83
2022/03/23 03:27:47;;;;;;;22.95;13.98;;;;;;;4.09;53.64;102412.84;4988246;28;20435;-83
2022/03/23 03:30:18;;;;;;;24.67;12.90;;;;;;;4.05;54.06;102416.97;5034578;27;20042;-83
2022/03/23 03:32:46;;;;;;;22.63;14.23;;;;;;;4.01;53.95;102414.19;5005647;28;20045;-83
2022/03/23 03:35:16;;;;;;;25.50;15.52;;;;;;;3.98;54.51;102410.63;5002222;28;20046;-84
2022/03/23 03:37:43;;;;;;;25.35;13.95;;;;;;;3.95;54.33;102420.88;5013243;28;20132;-83
2022/03/23 03:40:15;;;;;;;24.85;14.27;;;;;;;3.90;54.81;102422.34;5014064;28;20039;-83
2022/03/23 03:42:42;;;;;;;22.25;13.85;;;;;;;3.84;55.24;102416.00;5029141;27;20049;-84
2022/03/23 03:45:09;;;;;;;19.15;13.43;;;;;;;3.80;54.99;102415.84;5014464;28;20369;-83
2022/03/23 03:47:36;;;;;;;18.02;13.35;;;;;;;3.76;55.73;102416.50;5071689;28;20068;-83
2022/03/23 03:50:03;;;;;;;22.88;14.13;;;;;;;3.75;55.29;102411.25;5009634;28;20099;-83
2022/03/23 03:52:30;;;;;;;22.85;14.48;;;;;;;3.71;55.68;102406.75;4998563;28;20046;-83
2022/03/23 03:54:57;;;;;;;22.10;13.68;;;;;;;3.69;55.20;102418.72;5009648;28;20101;-83
2022/03/23 03:57:23;;;;;;;23.17;12.82;;;;;;;3.64;55.27;102416.81;5000383;28;20134;-83
2022/03/23 03:59:50;;;;;;;24.77;14.43;;;;;;;3.59;55.86;102412.25;5012951;28;20060;-83
2022/03/23 04:02:16;;;;;;;25.92;14.27;;;;;;;3.57;55.76;102424.22;5014049;28;20042;-83
2022/03/23 04:04:43;;;;;;;20.30;14.98;;;;;;;3.53;55.57;102415.41;5042549;28;20057;-84
2022/03/23 04:07:10;;;;;;;22.95;14.60;;;;;;;3.49;55.84;102418.66;5053787;27;20051;-83
2022/03/23 04:09:37;;;;;;;22.00;14.38;;;;;;;3.44;55.91;102414.97;5107111;28;20055;-83
2022/03/23 04:12:04;;;;;;;21.40;13.50;;;;;;;3.40;55.65;102418.22;5109705;27;20100;-84
2022/03/23 04:14:31;;;;;;;22.20;13.70;;;;;;;3.35;56.34;102420.59;5104152;28;20524;-83
2022/03/23 04:16:58;;;;;;;21.92;14.20;;;;;;;3.33;56.38;102423.91;5099507;28;20070;-84
2022/03/23 04:19:24;;;;;;;19.65;13.45;;;;;;;3.33;56.22;102429.09;5106686;27;20054;-84
2022/03/23 04:21:51;;;;;;;23.27;14.45;;;;;;;3.34;56.58;102423.09;5088543;28;20040;-83
2022/03/23 04:24:17;;;;;;;21.65;14.40;;;;;;;3.34;55.98;102428.25;5092593;28;20538;-83
2022/03/23 04:26:44;;;;;;;26.38;16.30;;;;;;;3.33;56.60;102434.28;5093555;28;20048;-83
2022/03/23 04:29:11;;;;;;;20.63;13.35;;;;;;;3.30;56.18;102432.41;5093426;28;20048;-83
2022/03/23 04:31:39;;;;;;;23.10;14.95;;;;;;;3.29;56.70;102436.69;5105748;28;20115;-83
2022/03/23 04:34:08;;;;;;;23.52;13.68;;;;;;;3.29;57.11;102428.94;5107547;27;20039;-83
2022/03/23 04:36:35;;;;;;;24.42;14.07;;;;;;;3.30;57.15;102437.59;5108712;28;20127;-83
2022/03/23 04:39:01;;;;;;;19.75;13.80;;;;;;;3.26;57.26;102436.56;5104073;28;20134;-83
2022/03/23 04:41:28;;;;;;;21.25;13.93;;;;;;;3.23;57.89;102431.19;5111055;27;20509;-82
2022/03/23 04:43:55;;;;;;;21.95;14.43;;;;;;;3.20;57.90;102428.47;5108259;28;20319;-83
2022/03/23 04:46:21;;;;;;;32.25;15.77;;;;;;;3.19;58.38;102434.44;5092686;28;20047;-83
2022/03/23 04:48:48;;;;;;;26.25;15.05;;;;;;;3.17;58.93;102435.19;5096099;27;20051;-83
2022/03/23 04:51:14;;;;;;;33.70;16.92;;;;;;;3.16;59.63;102442.06;5110250;28;20032;-84
2022/03/23 04:53:41;;;;;;;22.85;14.60;;;;;;;3.14;59.77;102441.09;5125961;27;20047;-83
2022/03/23 04:56:08;;;;;;;26.35;14.95;;;;;;;3.13;59.75;102447.97;5090049;28;20044;-83
2022/03/23 04:58:35;;;;;;;25.60;14.93;;;;;;;3.10;60.42;102442.66;5107609;27;20096;-84
2022/03/23 05:01:03;;;;;;;28.02;15.93;;;;;;;3.07;60.61;102441.63;5102539;28;20035;-83
2022/03/23 05:03:30;;;;;;;27.05;14.38;;;;;;;3.07;61.17;102444.19;5124002;27;20162;-83
2022/03/23 05:05:56;;;;;;;25.67;16.60;;;;;;;3.05;61.17;102446.72;5101255;28;20115;-83
2022/03/23 05:08:26;;;;;;;23.75;13.27;;;;;;;3.05;61.11;102448.41;5122031;27;20163;-83
2022/03/23 05:10:54;;;;;;;28.10;15.30;;;;;;;3.05;60.98;102456.16;5074721;28;20053;-84
2022/03/23 05:13:20;;;;;;;21.00;13.65;;;;;;;3.03;60.75;102450.03;5077500;28;20125;-83
2022/03/23 05:15:47;;;;;;;23.88;15.43;;;;;;;2.99;61.45;102456.75;5087438;28;21065;-83
2022/03/23 05:18:14;;;;;;;25.58;15.27;;;;;;;3.00;60.95;102452.44;5086171;28;20045;-84
2022/03/23 05:20:41;;;;;;;24.45;14.73;;;;;;;3.02;60.62;102458.59;5098427;28;20073;-83
2022/03/23 05:23:07;;;;;;;22.75;14.30;;;;;;;3.01;60.65;102455.09;5090644;27;20530;-83
2022/03/23 05:25:34;;;;;;;22.40;14.73;;;;;;;2.98;60.59;102455.84;5089961;28;20063;-84
2022/03/23 05:28:00;;;;;;;20.48;14.23;;;;;;;2.98;60.54;102453.25;5112895;27;20092;-83
2022/03/23 05:30:27;;;;;;;27.73;15.68;;;;;;;3.00;59.97;102452.44;5088377;28;20140;-83
2022/03/23 05:32:53;;;;;;;25.60;14.70;;;;;;;3.01;59.98;102456.81;5086110;28;20052;-84
2022/03/23 05:35:20;;;;;;;28.05;15.88;;;;;;;3.05;59.36;102456.16;5069288;28;20053;-83
2022/03/23 05:37:46;;;;;;;27.00;15.82;;;;;;;3.07;59.90;102458.00;5068948;28;20051;-83
2022/03/23 05:40:14;;;;;;;27.00;15.05;;;;;;;3.07;59.31;102457.13;5072300;28;20078;-82
2022/03/23 05:42:40;;;;;;;38.30;16.10;;;;;;;3.06;59.52;102455.34;5063953;28;20041;-81
2022/03/23 05:45:09;;;;;;;23.05;15.50;;;;;;;3.01;59.38;102447.34;5116474;27;20070;-80
2022/03/23 05:47:37;;;;;;;26.40;15.15;;;;;;;2.98;59.23;102455.84;5032872;28;20486;-80
2022/03/23 05:50:12;;;;;;;25.83;14.63;;;;;;;2.93;59.47;102459.00;5086852;28;20591;-82
2022/03/23 05:52:40;;;;;;;27.02;14.95;;;;;;;2.91;59.94;102458.94;5069561;28;20046;-79
2022/03/23 05:55:08;;;;;;;29.48;16.77;;;;;;;2.92;59.72;102459.81;5078019;28;20054;-82
2022/03/23 05:57:35;;;;;;;24.40;15.48;;;;;;;2.90;60.14;102457.16;5059788;28;20045;-81
2022/03/23 06:00:01;;;;;;;24.45;14.98;;;;;;;2.91;59.29;102465.81;5076258;28;20095;-81
2022/03/23 06:02:28;;;;;;;25.95;16.63;;;;;;;2.90;59.85;102458.88;5087429;28;20087;-81
2022/03/23 06:04:55;;;;;;;24.75;16.35;;;;;;;2.92;60.69;102457.22;5114226;27;20049;-80
2022/03/23 06:07:21;;;;;;;30.80;18.48;;;;;;;2.91;59.91;102458.94;5102624;28;20165;-82
2022/03/23 06:09:48;;;;;;;31.27;18.83;;;;;;;2.95;59.76;102462.56;5101094;28;20397;-81
2022/03/23 06:12:14;;;;;;;37.95;23.15;;;;;;;2.94;59.50;102464.25;5090261;28;20054;-81
2022/03/23 06:14:42;;;;;;;32.58;21.52;;;;;;;2.99;59.38;102464.50;5090481;28;20047;-80
2022/03/23 06:17:10;;;;;;;40.85;26.00;;;;;;;3.05;59.67;102464.84;5119391;27;20056;-81
2022/03/23 06:19:37;;;;;;;31.15;19.85;;;;;;;3.18;59.45;102463.75;5103174;28;20068;-83
2022/03/23 06:22:05;;;;;;;26.65;20.00;;;;;;;3.41;59.18;102470.06;5133462;27;20052;-83
2022/03/23 06:24:31;;;;;;;31.27;19.63;;;;;;;3.66;58.75;102462.63;5121527;27;21141;-81
2022/03/23 06:26:58;;;;;;;26.48;17.88;;;;;;;3.93;58.12;102471.72;5109423;28;20113;-80
2022/03/23 06:29:25;;;;;;;25.75;15.57;;;;;;;4.20;58.15;102475.53;5124456;27;20039;-82
2022/03/23 06:31:52;;;;;;;27.20;18.00;;;;;;;4.44;57.62;102473.19;5091431;28;20047;-81
2022/03/23 06:34:18;;;;;;;25.85;15.40;;;;;;;4.70;57.38;102473.47;5092510;28;20050;-83
2022/03/23 06:36:45;;;;;;;34.78;16.73;;;;;;;4.97;57.29;102484.19;5103182;28;20043;-82
2022/03/23 06:39:11;;;;;;;24.58;15.63;;;;;;;5.23;56.67;102481.84;5084727;28;20043;-80
2022/03/23 06:41:38;;;;;;;22.00;15.25;;;;;;;5.49;56.26;102482.03;5089670;28;20056;-81
2022/03/23 06:44:05;;;;;;;27.27;16.38;;;;;;;5.76;55.46;102485.78;5084458;28;20035;-82
2022/03/23 06:46:31;;;;;;;27.77;15.98;;;;;;;5.97;55.00;102482.22;5076534;28;20055;-82
2022/03/23 06:48:58;;;;;;;25.35;16.05;;;;;;;6.18;54.29;102481.34;5101504;27;20062;-81
2022/03/23 06:55:06;;;;;;;23.30;15.80;;;;;;;6.74;53.04;102481.69;5076484;27;20048;-84
2022/03/23 06:57:33;;;;;;;28.75;16.73;;;;;;;7.01;52.81;102484.38;5071494;28;20051;-81
2022/03/23 06:59:59;;;;;;;28.60;17.10;;;;;;;7.27;51.86;102476.59;5099559;27;20058;-83
2022/03/23 07:02:27;;;;;;;26.33;17.05;;;;;;;7.45;51.33;102471.13;5097501;28;20052;-82
2022/03/23 07:04:53;;;;;;;24.88;17.15;;;;;;;7.61;50.93;102475.13;5096721;27;20181;-83
2022/03/23 07:07:20;;;;;;;28.25;16.63;;;;;;;7.82;50.45;102479.25;5095602;27;20067;-82
2022/03/23 07:09:46;;;;;;;29.40;17.70;;;;;;;8.09;49.39;102481.84;5079144;28;20121;-83
2022/03/23 07:12:13;;;;;;;22.67;16.50;;;;;;;8.36;49.20;102483.53;5078382;28;20059;-85
2022/03/23 07:14:42;;;;;;;26.08;17.13;;;;;;;8.64;48.70;102481.75;5109587;27;20805;-83
2022/03/23 07:17:08;;;;;;;23.17;16.73;;;;;;;8.97;48.20;102476.59;5111728;27;20052;-82
2022/03/23 07:19:35;;;;;;;23.15;16.23;;;;;;;9.33;47.33;102475.75;5096369;27;20055;-81
2022/03/23 07:22:01;;;;;;;26.88;17.00;;;;;;;9.64;46.50;102467.81;5099267;28;20450;-81
2022/03/23 07:24:28;;;;;;;24.02;16.67;;;;;;;9.96;45.91;102476.41;5096007;27;20044;-82
2022/03/23 07:26:55;;;;;;;21.98;15.88;;;;;;;10.30;45.43;102474.53;5082103;28;20088;-81
2022/03/23 07:29:21;;;;;;;26.10;18.02;;;;;;;10.51;43.99;102482.00;5098689;28;20050;-82
2022/03/23 07:31:48;;;;;;;22.70;16.30;;;;;;;10.58;43.44;102472.53;5098098;27;20126;-84
2022/03/23 07:34:18;;;;;;;23.08;16.58;;;;;;;10.69;43.26;102468.41;5076675;28;20169;-83
2022/03/23 07:36:47;;;;;;;33.38;20.15;;;;;;;10.84;42.66;102469.53;5112938;27;20069;-86
2022/03/23 07:39:20;;;;;;;26.30;16.63;;;;;;;11.12;42.27;102476.19;5079472;28;20043;-84
2022/03/23 07:41:52;;;;;;;24.88;17.23;;;;;;;11.55;41.55;102476.91;5094746;27;20051;-81
2022/03/23 07:44:19;;;;;;;21.40;15.10;;;;;;;12.00;40.35;102475.00;5095361;28;20031;-83
2022/03/23 07:46:46;;;;;;;25.85;16.70;;;;;;;12.38;39.79;102476.38;5082379;28;20043;-84
2022/03/23 07:49:15;;;;;;;22.92;17.60;;;;;;;12.74;38.87;102475.06;5094688;28;20043;-83
2022/03/23 07:51:42;;;;;;;21.85;17.27;;;;;;;12.94;38.23;102471.78;5097816;28;20062;-83
2022/03/23 07:54:09;;;;;;;21.77;15.65;;;;;;;13.17;38.19;102475.53;5093780;28;20464;-82
2022/03/23 07:56:36;;;;;;;22.35;17.23;;;;;;;13.38;37.88;102480.13;5079746;28;20047;-83
2022/03/23 07:59:04;;;;;;;28.95;19.05;;;;;;;13.64;37.55;102481.22;5082025;28;20048;-81
2022/03/23 08:01:31;;;;;;;25.88;19.00;;;;;;;13.99;37.12;102488.47;5098845;27;20044;-85
2022/03/23 08:03:57;;;;;;;22.35;17.50;;;;;;;14.32;36.93;102481.63;5081819;28;20100;-85
2022/03/23 08:06:24;;;;;;;22.30;15.30;;;;;;;14.69;36.06;102485.34;5092614;27;20104;-82
2022/03/23 08:08:50;;;;;;;23.40;17.00;;;;;;;15.17;35.20;102484.53;5096936;27;20058;-80
2022/03/23 08:11:17;;;;;;;24.20;16.67;;;;;;;15.76;34.44;102489.81;5069280;27;20053;-83
2022/03/23 08:13:44;;;;;;;17.40;14.43;;;;;;;16.27;33.59;102490.63;5052699;28;20046;-85
2022/03/23 08:16:11;;;;;;;22.33;16.60;;;;;;;16.77;32.83;102480.72;5069764;27;20584;-85
2022/03/23 08:18:38;;;;;;;18.65;14.73;;;;;;;17.14;31.79;102485.81;5085877;28;20041;-82
2022/03/23 08:21:05;;;;;;;22.42;16.90;;;;;;;17.35;31.09;102486.50;5087239;27;20057;-81
2022/03/23 08:23:32;;;;;;;27.38;16.77;;;;;;;17.56;29.98;102482.84;5065986;28;20055;-81
2022/03/23 08:25:59;;;;;;;23.40;16.00;;;;;;;17.62;29.46;102485.41;5068675;27;20049;-82
2022/03/23 08:28:30;;;;;;;22.73;16.73;;;;;;;17.60;28.43;102486.31;5090111;27;20361;-84
2022/03/23 08:30:57;;;;;;;23.00;17.48;;;;;;;17.48;28.12;102484.66;5085530;28;20052;-81
2022/03/23 08:33:25;;;;;;;19.17;16.52;;;;;;;17.68;28.18;102484.50;5085472;27;21526;-82
2022/03/23 08:35:51;;;;;;;21.92;16.92;;;;;;;17.79;27.98;102474.66;5069440;28;20078;-83
2022/03/23 08:38:18;;;;;;;20.90;16.33;;;;;;;17.89;27.71;102479.88;5083412;28;20042;-83
2022/03/23 08:40:45;;;;;;;25.05;17.10;;;;;;;17.89;27.63;102483.38;5084523;28;20524;-83
2022/03/23 08:43:12;;;;;;;28.63;17.08;;;;;;;18.11;27.58;102483.22;5066299;28;20080;-82
2022/03/23 08:45:38;;;;;;;19.00;15.63;;;;;;;18.41;27.30;102481.06;5096486;27;20129;-82
2022/03/23 08:48:05;;;;;;;22.35;16.75;;;;;;;18.66;27.02;102477.19;5121504;27;20054;-85
2022/03/23 08:50:34;;;;;;;28.00;18.70;;;;;;;18.93;26.56;102483.06;5115027;27;20405;-82
2022/03/23 08:53:02;;;;;;;25.42;18.13;;;;;;;19.23;26.38;102487.88;5081099;27;20049;-85
2022/03/23 08:55:33;;;;;;;20.58;16.98;;;;;;;19.54;25.76;102485.59;5083620;28;20187;-84
2022/03/23 08:58:00;;;;;;;26.17;19.00;;;;;;;19.78;25.53;102486.97;5085052;27;20060;-81
2022/03/23 09:00:29;;;;;;;29.50;19.33;;;;;;;20.00;25.00;102483.94;5015817;28;20424;-81
2022/03/23 09:02:58;;;;;;;19.55;16.40;;;;;;;20.61;24.63;102478.22;5091589;27;20057;-83
2022/03/23 09:05:25;;;;;;;24.65;18.50;;;;;;;21.34;24.09;102476.56;5084938;27;20037;-81
2022/03/23 09:07:52;;;;;;;21.80;16.85;;;;;;;21.93;23.47;102475.97;5100135;27;20076;-85
2022/03/23 09:10:20;;;;;;;21.42;18.15;;;;;;;22.43;22.69;102476.28;5071186;28;20053;-82
2022/03/23 09:12:47;;;;;;;20.85;18.20;;;;;;;22.78;22.01;102470.81;5084009;28;20118;-83
2022/03/23 09:15:17;;;;;;;18.75;16.65;;;;;;;23.01;21.76;102470.09;5086985;28;20053;-83
2022/03/23 09:17:45;;;;;;;21.90;16.83;;;;;;;23.36;21.41;102465.41;5088092;28;20140;-81
2022/03/23 09:20:13;;;;;;;18.30;16.33;;;;;;;23.94;20.79;102466.97;5066165;28;20089;-83
2022/03/23 09:22:41;;;;;;;20.30;17.88;;;;;;;24.31;19.71;102468.25;5083843;28;20049;-81
2022/03/23 09:25:13;;;;;;;21.23;18.95;;;;;;;24.02;19.87;102462.19;5116752;27;20113;-81
2022/03/23 09:27:43;;;;;;;20.98;18.85;;;;;;;23.33;20.13;102468.16;5081310;28;20128;-82
2022/03/23 09:30:13;;;;;;;19.70;17.70;;;;;;;22.36;21.11;102471.19;5082939;28;20092;-81
2022/03/23 09:32:40;;;;;;;23.90;18.48;;;;;;;21.14;21.70;102469.94;5084255;28;20061;-83
2022/03/23 09:35:09;;;;;;;25.20;18.42;;;;;;;19.99;22.24;102475.06;5077949;28;20049;-82
2022/03/23 09:37:48;;;;;;;19.48;17.42;;;;;;;18.85;22.41;102475.16;5082276;28;20057;-83
2022/03/23 09:40:27;;;;;;;24.38;18.42;;;;;;;17.56;22.73;102471.34;5082573;28;20041;-82
2022/03/23 09:42:56;;;;;;;23.02;18.15;;;;;;;16.67;23.65;102474.59;5085156;28;20060;-82
2022/03/23 09:45:37;;;;;;;24.55;17.48;;;;;;;16.47;23.74;102479.97;5086588;28;20037;-83
2022/03/23 09:48:09;;;;;;;20.10;16.58;;;;;;;17.68;22.58;102476.53;5106594;27;20154;-81
2022/03/23 09:50:38;;;;;;;21.38;16.00;;;;;;;19.29;21.17;102462.13;5083867;27;20054;-84
2022/03/23 09:53:05;;;;;;;21.35;17.23;;;;;;;21.12;19.82;102462.00;5079392;27;20447;-84
2022/03/23 09:55:33;;;;;;;22.05;17.23;;;;;;;22.42;18.65;102449.66;5086898;27;20518;-82
2022/03/23 09:58:02;;;;;;;22.50;17.13;;;;;;;23.22;18.60;102454.28;5085565;27;20056;-81
2022/03/23 10:00:41;;;;;;;23.02;18.98;;;;;;;24.53;17.85;102456.72;5097521;27;20132;-82
2022/03/23 10:03:10;;;;;;;22.90;17.45;;;;;;;25.63;16.96;102454.91;5089074;27;20181;-85
2022/03/23 10:06:12;;;;;;;19.67;17.75;;;;;;;26.58;16.29;102453.25;5112856;27;20041;-84
2022/03/23 10:09:12;;;;;;;21.02;16.77;;;;;;;27.62;15.17;102450.78;5083510;27;20054;-82
2022/03/23 10:11:54;;;;;;;25.95;19.85;;;;;;;27.98;14.81;102446.22;5069062;27;20052;-83
2022/03/23 10:15:24;;;;;;;18.67;16.75;;;;;;;28.06;14.56;102447.56;5029397;27;20045;-83
2022/03/23 10:19:01;;;;;;;21.88;15.98;;;;;;;28.59;13.11;102446.44;5046359;27;20511;-84
2022/03/23 10:21:39;;;;;;;18.67;15.85;;;;;;;29.20;13.89;102440.22;5087795;27;20053;-84
2022/03/23 10:24:05;;;;;;;16.38;14.55;;;;;;;29.60;13.71;102444.16;5097973;27;20408;-82
2022/03/23 10:26:36;;;;;;;18.00;16.25;;;;;;;29.34;13.07;102439.38;5111102;27;20056;-83
2022/03/23 10:29:04;;;;;;;17.50;15.80;;;;;;;28.73;13.15;102443.00;5062644;27;20403;-81
2022/03/23 10:31:31;;;;;;;18.13;15.50;;;;;;;28.56;13.37;102444.81;5083009;27;20053;-81
2022/03/23 10:34:08;;;;;;;15.25;13.73;;;;;;;28.74;12.98;102440.22;5075805;27;20054;-83
2022/03/23 10:36:55;;;;;;;17.02;15.35;;;;;;;28.90;12.99;102439.31;5086127;27;20058;-83
2022/03/23 10:39:28;;;;;;;16.08;14.35;;;;;;;29.28;12.60;102434.38;5095177;27;20106;-83
2022/03/23 10:42:29;;;;;;;15.57;14.20;;;;;;;29.61;12.31;102430.56;5083576;27;20038;-83
2022/03/23 10:45:11;;;;;;;16.23;14.38;;;;;;;29.36;12.67;102439.31;5083261;27;20037;-80
2022/03/23 10:47:39;;;;;;;14.75;13.45;;;;;;;29.78;12.44;102434.06;5089125;27;20050;-80
2022/03/23 10:50:19;;;;;;;14.13;12.82;;;;;;;30.56;11.58;102436.31;5011550;27;20045;-82
2022/03/23 10:53:11;;;;;;;13.18;12.18;;;;;;;30.93;11.47;102425.75;5059995;27;20049;-81
2022/03/23 10:55:40;;;;;;;14.48;13.00;;;;;;;31.62;11.56;102430.13;5084903;27;20598;-82
2022/03/23 10:58:06;;;;;;;14.80;13.30;;;;;;;31.66;11.20;102421.66;5084195;27;20037;-80
2022/03/23 11:00:37;;;;;;;13.57;12.38;;;;;;;31.40;10.87;102428.03;5099649;27;20168;-83
2022/03/23 11:03:06;;;;;;;14.18;12.88;;;;;;;31.27;11.01;102428.00;5087741;27;20077;-80
2022/03/23 11:05:46;;;;;;;15.25;13.65;;;;;;;31.01;10.76;102426.06;5085830;27;20049;-82
2022/03/23 11:08:22;;;;;;;14.25;12.82;;;;;;;31.01;10.83;102419.81;5113384;27;20169;-82
2022/03/23 11:16:27;;;;;;;12.27;11.18;;;;;;;32.39;10.19;102411.00;5087176;27;20516;-81
2022/03/23 11:19:11;;;;;;;13.65;11.63;;;;;;;32.70;9.46;102414.13;5059323;27;20054;-83
2022/03/23 11:22:12;;;;;;;13.38;12.18;;;;;;;32.41;9.74;102416.31;5075942;27;20118;-81
2022/03/23 11:24:47;;;;;;;12.85;11.73;;;;;;;32.54;9.75;102409.00;5099221;27;20984;-81
2022/03/23 11:27:20;;;;;;;13.07;11.93;;;;;;;32.63;9.45;102410.16;5068263;27;20116;-82
2022/03/23 11:29:51;;;;;;;12.45;11.48;;;;;;;33.02;9.98;102404.53;5072754;27;20042;-82
2022/03/23 11:32:25;;;;;;;13.10;11.23;;;;;;;33.36;9.74;102405.50;5080215;28;20682;-85
2022/03/23 11:34:54;;;;;;;19.45;17.45;;;;;;;33.88;9.44;102405.91;5085358;27;20125;-82
2022/03/23 11:37:23;;;;;;;13.95;12.65;;;;;;;34.03;9.22;102411.06;5067630;27;20072;-83
2022/03/23 11:39:52;;;;;;;14.30;13.18;;;;;;;33.88;9.60;102408.63;5080282;27;20042;-85
2022/03/23 11:42:22;;;;;;;13.88;12.57;;;;;;;34.20;9.35;102402.41;5079733;27;20045;-83
2022/03/23 11:44:49;;;;;;;13.60;12.32;;;;;;;34.40;8.85;102395.34;5076568;27;20126;-83